sensor_id;sensor_type;location;lat;lon;timestamp;P1;durP1;ratioP1;P2;durP2;ratioP2
3337;SDS011;1682;49.286;10.788;2023-02-24T00:01:01;20.10;;;12.10;;
3337;SDS011;1682;49.286;10.788;2023-02-24T00:03:36;21.10;;;13.33;;
3337;SDS011;1682;49.286;10.788;2023-02-24T00:06:09;19.63;;;11.47;;
3337;SDS011;1682;49.286;10.788;2023-02-24T00:08:36;19.33;;;11.67;;
3337;SDS011;1682;49.286;10.788;2023-02-24T00:11:08;14.43;;;11.30;;
3337;SDS011;1682;49.286;10.788;2023-02-24T00:13:38;18.80;;;12.40;;
3337;SDS011;1682;49.286;10.788;2023-02-24T00:16:05;26.40;;;11.97;;
3337;SDS011;1682;49.286;10.788;2023-02-24T00:18:32;23.03;;;11.90;;
3337;SDS011;1682;49.286;10.788;2023-02-24T00:21:06;22.03;;;11.47;;
3337;SDS011;1682;49.286;10.788;2023-02-24T00:23:35;23.37;;;11.33;;
3337;SDS011;1682;49.286;10.788;2023-02-24T00:26:04;20.40;;;11.57;;
3337;SDS011;1682;49.286;10.788;2023-02-24T00:28:32;19.53;;;12.90;;
3337;SDS011;1682;49.286;10.788;2023-02-24T00:31:02;17.47;;;13.50;;
3337;SDS011;1682;49.286;10.788;2023-02-24T00:33:30;22.27;;;12.73;;
3337;SDS011;1682;49.286;10.788;2023-02-24T00:36:07;23.63;;;12.60;;
3337;SDS011;1682;49.286;10.788;2023-02-24T00:38:35;20.80;;;13.60;;
3337;SDS011;1682;49.286;10.788;2023-02-24T00:41:09;17.20;;;10.97;;
3337;SDS011;1682;49.286;10.788;2023-02-24T00:43:38;20.73;;;13.07;;
3337;SDS011;1682;49.286;10.788;2023-02-24T00:46:12;22.10;;;13.47;;
3337;SDS011;1682;49.286;10.788;2023-02-24T00:48:41;19.53;;;13.90;;
3337;SDS011;1682;49.286;10.788;2023-02-24T00:51:10;17.13;;;11.90;;
3337;SDS011;1682;49.286;10.788;2023-02-24T00:53:38;22.83;;;14.83;;
3337;SDS011;1682;49.286;10.788;2023-02-24T00:56:05;20.80;;;12.63;;
3337;SDS011;1682;49.286;10.788;2023-02-24T00:58:36;25.17;;;15.70;;
3337;SDS011;1682;49.286;10.788;2023-02-24T01:01:03;21.10;;;12.20;;
3337;SDS011;1682;49.286;10.788;2023-02-24T01:03:34;18.40;;;12.87;;
3337;SDS011;1682;49.286;10.788;2023-02-24T01:06:01;22.30;;;13.00;;
3337;SDS011;1682;49.286;10.788;2023-02-24T01:08:30;27.10;;;14.23;;
3337;SDS011;1682;49.286;10.788;2023-02-24T01:11:00;19.90;;;13.40;;
3337;SDS011;1682;49.286;10.788;2023-02-24T01:13:46;26.37;;;14.87;;
3337;SDS011;1682;49.286;10.788;2023-02-24T01:16:13;25.80;;;16.17;;
3337;SDS011;1682;49.286;10.788;2023-02-24T01:18:44;19.17;;;13.57;;
3337;SDS011;1682;49.286;10.788;2023-02-24T01:21:12;24.97;;;15.93;;
3337;SDS011;1682;49.286;10.788;2023-02-24T01:23:40;24.70;;;12.77;;
3337;SDS011;1682;49.286;10.788;2023-02-24T01:26:07;30.47;;;15.87;;
3337;SDS011;1682;49.286;10.788;2023-02-24T01:28:35;23.53;;;15.23;;
3337;SDS011;1682;49.286;10.788;2023-02-24T01:31:02;27.20;;;15.23;;
3337;SDS011;1682;49.286;10.788;2023-02-24T01:33:30;26.50;;;16.57;;
3337;SDS011;1682;49.286;10.788;2023-02-24T01:36:08;25.43;;;15.50;;
3337;SDS011;1682;49.286;10.788;2023-02-24T01:38:35;20.40;;;13.67;;
3337;SDS011;1682;49.286;10.788;2023-02-24T01:41:03;25.70;;;15.50;;
3337;SDS011;1682;49.286;10.788;2023-02-24T01:43:31;25.17;;;15.07;;
3337;SDS011;1682;49.286;10.788;2023-02-24T01:45:59;28.53;;;17.23;;
3337;SDS011;1682;49.286;10.788;2023-02-24T01:48:26;32.60;;;15.80;;
3337;SDS011;1682;49.286;10.788;2023-02-24T01:50:55;29.40;;;16.10;;
3337;SDS011;1682;49.286;10.788;2023-02-24T01:53:24;28.83;;;15.50;;
3337;SDS011;1682;49.286;10.788;2023-02-24T01:55:51;27.03;;;14.80;;
3337;SDS011;1682;49.286;10.788;2023-02-24T01:58:19;23.40;;;15.40;;
3337;SDS011;1682;49.286;10.788;2023-02-24T02:00:49;23.43;;;14.43;;
3337;SDS011;1682;49.286;10.788;2023-02-24T02:03:22;27.60;;;13.60;;
3337;SDS011;1682;49.286;10.788;2023-02-24T02:05:51;27.77;;;14.57;;
3337;SDS011;1682;49.286;10.788;2023-02-24T02:08:20;22.00;;;13.30;;
3337;SDS011;1682;49.286;10.788;2023-02-24T02:10:50;22.60;;;13.33;;
3337;SDS011;1682;49.286;10.788;2023-02-24T02:13:23;29.07;;;15.93;;
3337;SDS011;1682;49.286;10.788;2023-02-24T02:15:53;23.07;;;14.20;;
3337;SDS011;1682;49.286;10.788;2023-02-24T02:18:25;25.60;;;16.10;;
3337;SDS011;1682;49.286;10.788;2023-02-24T02:21:18;25.07;;;14.37;;
3337;SDS011;1682;49.286;10.788;2023-02-24T02:32:26;22.53;;;14.00;;
3337;SDS011;1682;49.286;10.788;2023-02-24T02:34:59;24.80;;;14.40;;
3337;SDS011;1682;49.286;10.788;2023-02-24T02:37:31;23.57;;;14.27;;
3337;SDS011;1682;49.286;10.788;2023-02-24T02:40:00;30.83;;;14.10;;
3337;SDS011;1682;49.286;10.788;2023-02-24T02:42:34;22.87;;;14.37;;
3337;SDS011;1682;49.286;10.788;2023-02-24T02:45:07;28.13;;;16.97;;
3337;SDS011;1682;49.286;10.788;2023-02-24T02:47:38;37.03;;;15.80;;
3337;SDS011;1682;49.286;10.788;2023-02-24T02:50:11;23.20;;;14.63;;
3337;SDS011;1682;49.286;10.788;2023-02-24T02:52:44;25.70;;;15.80;;
3337;SDS011;1682;49.286;10.788;2023-02-24T02:55:14;22.33;;;14.47;;
3337;SDS011;1682;49.286;10.788;2023-02-24T02:57:45;27.33;;;15.60;;
3337;SDS011;1682;49.286;10.788;2023-02-24T03:00:14;24.80;;;15.43;;
3337;SDS011;1682;49.286;10.788;2023-02-24T03:02:45;23.23;;;13.97;;
3337;SDS011;1682;49.286;10.788;2023-02-24T03:05:16;23.63;;;14.37;;
3337;SDS011;1682;49.286;10.788;2023-02-24T03:07:45;27.17;;;16.10;;
3337;SDS011;1682;49.286;10.788;2023-02-24T03:10:16;23.00;;;14.57;;
3337;SDS011;1682;49.286;10.788;2023-02-24T03:12:46;24.00;;;15.30;;
3337;SDS011;1682;49.286;10.788;2023-02-24T03:15:15;22.33;;;16.27;;
3337;SDS011;1682;49.286;10.788;2023-02-24T03:17:45;27.93;;;15.90;;
3337;SDS011;1682;49.286;10.788;2023-02-24T03:20:17;25.67;;;16.27;;
3337;SDS011;1682;49.286;10.788;2023-02-24T03:22:46;27.23;;;18.40;;
3337;SDS011;1682;49.286;10.788;2023-02-24T03:25:17;31.67;;;17.80;;
3337;SDS011;1682;49.286;10.788;2023-02-24T03:27:48;26.53;;;15.87;;
3337;SDS011;1682;49.286;10.788;2023-02-24T03:30:17;23.63;;;15.70;;
3337;SDS011;1682;49.286;10.788;2023-02-24T03:32:48;32.70;;;16.77;;
3337;SDS011;1682;49.286;10.788;2023-02-24T03:35:21;29.57;;;16.33;;
3337;SDS011;1682;49.286;10.788;2023-02-24T03:37:50;28.03;;;16.83;;
3337;SDS011;1682;49.286;10.788;2023-02-24T03:40:19;30.17;;;15.83;;
3337;SDS011;1682;49.286;10.788;2023-02-24T03:42:53;32.10;;;17.57;;
3337;SDS011;1682;49.286;10.788;2023-02-24T03:45:23;27.13;;;15.20;;
3337;SDS011;1682;49.286;10.788;2023-02-24T03:47:51;25.50;;;16.80;;
3337;SDS011;1682;49.286;10.788;2023-02-24T03:50:21;31.90;;;17.53;;
3337;SDS011;1682;49.286;10.788;2023-02-24T03:52:53;32.17;;;16.13;;
3337;SDS011;1682;49.286;10.788;2023-02-24T03:55:25;26.83;;;15.50;;
3337;SDS011;1682;49.286;10.788;2023-02-24T03:58:01;27.20;;;16.27;;
3337;SDS011;1682;49.286;10.788;2023-02-24T04:00:33;28.40;;;15.90;;
3337;SDS011;1682;49.286;10.788;2023-02-24T04:03:12;28.13;;;16.60;;
3337;SDS011;1682;49.286;10.788;2023-02-24T04:05:46;26.57;;;15.67;;
3337;SDS011;1682;49.286;10.788;2023-02-24T04:08:16;30.00;;;16.67;;
3337;SDS011;1682;49.286;10.788;2023-02-24T04:10:46;27.63;;;16.10;;
3337;SDS011;1682;49.286;10.788;2023-02-24T04:13:17;26.60;;;16.43;;
3337;SDS011;1682;49.286;10.788;2023-02-24T04:15:47;31.63;;;16.20;;
3337;SDS011;1682;49.286;10.788;2023-02-24T04:18:17;31.83;;;18.20;;
3337;SDS011;1682;49.286;10.788;2023-02-24T04:20:47;30.17;;;16.67;;
3337;SDS011;1682;49.286;10.788;2023-02-24T04:23:17;33.00;;;17.90;;
3337;SDS011;1682;49.286;10.788;2023-02-24T04:25:48;31.17;;;15.47;;
3337;SDS011;1682;49.286;10.788;2023-02-24T04:28:16;30.23;;;16.90;;
3337;SDS011;1682;49.286;10.788;2023-02-24T04:30:46;27.77;;;15.57;;
3337;SDS011;1682;49.286;10.788;2023-02-24T04:33:14;32.37;;;18.30;;
3337;SDS011;1682;49.286;10.788;2023-02-24T04:35:43;29.77;;;15.63;;
3337;SDS011;1682;49.286;10.788;2023-02-24T04:38:11;37.27;;;18.50;;
3337;SDS011;1682;49.286;10.788;2023-02-24T04:40:38;31.97;;;17.17;;
3337;SDS011;1682;49.286;10.788;2023-02-24T04:43:06;35.90;;;19.63;;
3337;SDS011;1682;49.286;10.788;2023-02-24T04:45:34;29.13;;;16.70;;
3337;SDS011;1682;49.286;10.788;2023-02-24T04:48:04;34.27;;;17.00;;
3337;SDS011;1682;49.286;10.788;2023-02-24T04:50:37;35.17;;;17.03;;
3337;SDS011;1682;49.286;10.788;2023-02-24T04:53:05;36.00;;;17.07;;
3337;SDS011;1682;49.286;10.788;2023-02-24T04:55:35;29.60;;;18.00;;
3337;SDS011;1682;49.286;10.788;2023-02-24T04:58:04;35.17;;;18.10;;
3337;SDS011;1682;49.286;10.788;2023-02-24T05:00:32;36.60;;;19.20;;
3337;SDS011;1682;49.286;10.788;2023-02-24T05:03:00;29.53;;;17.50;;
3337;SDS011;1682;49.286;10.788;2023-02-24T05:05:28;27.23;;;17.53;;
3337;SDS011;1682;49.286;10.788;2023-02-24T05:07:58;27.27;;;17.00;;
3337;SDS011;1682;49.286;10.788;2023-02-24T05:10:27;36.53;;;18.33;;
3337;SDS011;1682;49.286;10.788;2023-02-24T05:12:56;31.57;;;18.10;;
3337;SDS011;1682;49.286;10.788;2023-02-24T05:15:24;35.13;;;19.17;;
3337;SDS011;1682;49.286;10.788;2023-02-24T05:17:55;33.93;;;17.47;;
3337;SDS011;1682;49.286;10.788;2023-02-24T05:20:24;33.03;;;17.40;;
3337;SDS011;1682;49.286;10.788;2023-02-24T05:23:08;27.70;;;16.30;;
3337;SDS011;1682;49.286;10.788;2023-02-24T05:25:36;34.77;;;20.30;;
3337;SDS011;1682;49.286;10.788;2023-02-24T05:28:08;34.10;;;16.80;;
3337;SDS011;1682;49.286;10.788;2023-02-24T05:30:35;36.57;;;19.30;;
3337;SDS011;1682;49.286;10.788;2023-02-24T05:33:03;38.57;;;17.93;;
3337;SDS011;1682;49.286;10.788;2023-02-24T05:35:34;42.77;;;25.00;;
3337;SDS011;1682;49.286;10.788;2023-02-24T05:38:02;29.50;;;18.67;;
3337;SDS011;1682;49.286;10.788;2023-02-24T05:40:32;36.77;;;19.70;;
3337;SDS011;1682;49.286;10.788;2023-02-24T05:42:59;32.10;;;18.00;;
3337;SDS011;1682;49.286;10.788;2023-02-24T05:45:30;37.20;;;18.60;;
3337;SDS011;1682;49.286;10.788;2023-02-24T05:47:59;33.97;;;17.87;;
3337;SDS011;1682;49.286;10.788;2023-02-24T05:50:29;42.20;;;19.13;;
3337;SDS011;1682;49.286;10.788;2023-02-24T05:52:57;31.47;;;18.80;;
3337;SDS011;1682;49.286;10.788;2023-02-24T05:55:24;40.53;;;19.47;;
3337;SDS011;1682;49.286;10.788;2023-02-24T05:57:51;36.40;;;19.07;;
3337;SDS011;1682;49.286;10.788;2023-02-24T06:00:21;30.23;;;19.70;;
3337;SDS011;1682;49.286;10.788;2023-02-24T06:02:51;34.17;;;18.53;;
3337;SDS011;1682;49.286;10.788;2023-02-24T06:05:18;36.30;;;20.90;;
3337;SDS011;1682;49.286;10.788;2023-02-24T06:07:55;39.03;;;19.70;;
3337;SDS011;1682;49.286;10.788;2023-02-24T06:10:29;35.10;;;19.80;;
3337;SDS011;1682;49.286;10.788;2023-02-24T06:12:58;37.60;;;19.67;;
3337;SDS011;1682;49.286;10.788;2023-02-24T06:15:26;34.40;;;18.70;;
3337;SDS011;1682;49.286;10.788;2023-02-24T06:17:55;41.60;;;20.00;;
3337;SDS011;1682;49.286;10.788;2023-02-24T06:20:25;35.57;;;18.90;;
3337;SDS011;1682;49.286;10.788;2023-02-24T06:22:53;33.53;;;18.57;;
3337;SDS011;1682;49.286;10.788;2023-02-24T06:25:22;32.47;;;17.77;;
3337;SDS011;1682;49.286;10.788;2023-02-24T06:27:50;32.10;;;17.50;;
3337;SDS011;1682;49.286;10.788;2023-02-24T06:30:21;36.30;;;19.30;;
3337;SDS011;1682;49.286;10.788;2023-02-24T06:32:48;45.10;;;20.47;;
3337;SDS011;1682;49.286;10.788;2023-02-24T06:35:18;33.83;;;19.53;;
3337;SDS011;1682;49.286;10.788;2023-02-24T06:37:45;36.30;;;17.70;;
3337;SDS011;1682;49.286;10.788;2023-02-24T06:40:12;30.67;;;16.93;;
3337;SDS011;1682;49.286;10.788;2023-02-24T06:42:44;37.83;;;17.87;;
3337;SDS011;1682;49.286;10.788;2023-02-24T06:45:12;42.40;;;19.67;;
3337;SDS011;1682;49.286;10.788;2023-02-24T06:47:40;30.63;;;18.17;;
3337;SDS011;1682;49.286;10.788;2023-02-24T06:50:08;38.43;;;19.50;;
3337;SDS011;1682;49.286;10.788;2023-02-24T06:52:37;32.00;;;19.77;;
3337;SDS011;1682;49.286;10.788;2023-02-24T06:55:07;33.90;;;19.80;;
3337;SDS011;1682;49.286;10.788;2023-02-24T06:57:50;40.87;;;21.40;;
3337;SDS011;1682;49.286;10.788;2023-02-24T07:00:21;39.60;;;19.47;;
3337;SDS011;1682;49.286;10.788;2023-02-24T07:02:52;36.00;;;19.30;;
3337;SDS011;1682;49.286;10.788;2023-02-24T07:05:20;39.73;;;19.30;;
3337;SDS011;1682;49.286;10.788;2023-02-24T07:07:49;46.83;;;20.10;;
3337;SDS011;1682;49.286;10.788;2023-02-24T07:10:17;39.70;;;20.53;;
3337;SDS011;1682;49.286;10.788;2023-02-24T07:12:44;33.57;;;20.07;;
3337;SDS011;1682;49.286;10.788;2023-02-24T07:15:11;38.10;;;20.47;;
3337;SDS011;1682;49.286;10.788;2023-02-24T07:17:38;38.10;;;19.67;;
3337;SDS011;1682;49.286;10.788;2023-02-24T07:20:07;33.90;;;18.80;;
3337;SDS011;1682;49.286;10.788;2023-02-24T07:22:50;43.20;;;18.70;;
3337;SDS011;1682;49.286;10.788;2023-02-24T07:25:17;40.50;;;20.37;;
3337;SDS011;1682;49.286;10.788;2023-02-24T07:27:57;42.30;;;21.03;;
3337;SDS011;1682;49.286;10.788;2023-02-24T07:30:26;39.27;;;20.50;;
3337;SDS011;1682;49.286;10.788;2023-02-24T07:32:54;40.77;;;21.50;;
3337;SDS011;1682;49.286;10.788;2023-02-24T07:35:21;40.37;;;21.83;;
3337;SDS011;1682;49.286;10.788;2023-02-24T07:37:50;32.57;;;21.00;;
3337;SDS011;1682;49.286;10.788;2023-02-24T07:40:20;34.73;;;19.37;;
3337;SDS011;1682;49.286;10.788;2023-02-24T07:42:51;34.47;;;20.97;;
3337;SDS011;1682;49.286;10.788;2023-02-24T07:45:20;30.20;;;19.00;;
3337;SDS011;1682;49.286;10.788;2023-02-24T07:47:47;35.30;;;18.47;;
3337;SDS011;1682;49.286;10.788;2023-02-24T07:50:14;35.40;;;20.40;;
3337;SDS011;1682;49.286;10.788;2023-02-24T07:52:42;36.20;;;18.87;;
3337;SDS011;1682;49.286;10.788;2023-02-24T07:55:11;37.87;;;21.23;;
3337;SDS011;1682;49.286;10.788;2023-02-24T07:57:39;45.80;;;21.40;;
3337;SDS011;1682;49.286;10.788;2023-02-24T08:00:11;36.10;;;19.60;;
3337;SDS011;1682;49.286;10.788;2023-02-24T08:02:42;33.30;;;19.77;;
3337;SDS011;1682;49.286;10.788;2023-02-24T08:05:10;32.93;;;18.70;;
3337;SDS011;1682;49.286;10.788;2023-02-24T08:07:37;34.20;;;18.37;;
3337;SDS011;1682;49.286;10.788;2023-02-24T08:10:05;38.20;;;18.97;;
3337;SDS011;1682;49.286;10.788;2023-02-24T08:12:40;37.63;;;19.43;;
3337;SDS011;1682;49.286;10.788;2023-02-24T08:15:11;28.87;;;18.40;;
3337;SDS011;1682;49.286;10.788;2023-02-24T08:17:48;37.43;;;17.83;;
3337;SDS011;1682;49.286;10.788;2023-02-24T08:20:17;33.87;;;17.93;;
3337;SDS011;1682;49.286;10.788;2023-02-24T08:22:50;35.40;;;19.60;;
3337;SDS011;1682;49.286;10.788;2023-02-24T08:25:18;35.00;;;18.40;;
3337;SDS011;1682;49.286;10.788;2023-02-24T08:27:49;42.80;;;17.80;;
3337;SDS011;1682;49.286;10.788;2023-02-24T08:30:21;40.07;;;19.07;;
3337;SDS011;1682;49.286;10.788;2023-02-24T08:32:51;40.63;;;19.57;;
3337;SDS011;1682;49.286;10.788;2023-02-24T08:35:22;35.63;;;19.27;;
3337;SDS011;1682;49.286;10.788;2023-02-24T08:37:57;37.17;;;19.33;;
3337;SDS011;1682;49.286;10.788;2023-02-24T08:40:25;39.00;;;19.70;;
3337;SDS011;1682;49.286;10.788;2023-02-24T08:43:05;36.83;;;18.20;;
3337;SDS011;1682;49.286;10.788;2023-02-24T08:45:44;39.70;;;19.00;;
3337;SDS011;1682;49.286;10.788;2023-02-24T08:48:14;38.17;;;19.60;;
3337;SDS011;1682;49.286;10.788;2023-02-24T08:50:51;36.83;;;18.80;;
3337;SDS011;1682;49.286;10.788;2023-02-24T08:53:18;40.13;;;19.23;;
3337;SDS011;1682;49.286;10.788;2023-02-24T08:55:46;37.60;;;18.77;;
3337;SDS011;1682;49.286;10.788;2023-02-24T08:58:17;33.77;;;19.87;;
3337;SDS011;1682;49.286;10.788;2023-02-24T09:00:51;38.70;;;18.37;;
3337;SDS011;1682;49.286;10.788;2023-02-24T09:03:20;31.23;;;17.97;;
3337;SDS011;1682;49.286;10.788;2023-02-24T09:05:58;34.33;;;16.30;;
3337;SDS011;1682;49.286;10.788;2023-02-24T09:08:29;41.33;;;20.00;;
3337;SDS011;1682;49.286;10.788;2023-02-24T09:11:03;38.67;;;18.10;;
3337;SDS011;1682;49.286;10.788;2023-02-24T09:13:33;42.70;;;19.77;;
3337;SDS011;1682;49.286;10.788;2023-02-24T09:16:01;32.87;;;18.17;;
3337;SDS011;1682;49.286;10.788;2023-02-24T09:18:28;40.47;;;19.13;;
3337;SDS011;1682;49.286;10.788;2023-02-24T09:21:08;31.50;;;16.77;;
3337;SDS011;1682;49.286;10.788;2023-02-24T09:23:56;38.30;;;17.50;;
3337;SDS011;1682;49.286;10.788;2023-02-24T09:26:25;35.73;;;16.63;;
3337;SDS011;1682;49.286;10.788;2023-02-24T09:28:58;32.13;;;17.30;;
3337;SDS011;1682;49.286;10.788;2023-02-24T09:31:35;41.90;;;19.07;;
3337;SDS011;1682;49.286;10.788;2023-02-24T09:34:19;33.90;;;18.50;;
3337;SDS011;1682;49.286;10.788;2023-02-24T09:36:54;37.43;;;19.70;;
3337;SDS011;1682;49.286;10.788;2023-02-24T09:39:27;34.60;;;18.00;;
3337;SDS011;1682;49.286;10.788;2023-02-24T09:41:56;35.60;;;19.63;;
3337;SDS011;1682;49.286;10.788;2023-02-24T09:44:50;37.13;;;19.40;;
3337;SDS011;1682;49.286;10.788;2023-02-24T09:47:21;38.60;;;19.17;;
3337;SDS011;1682;49.286;10.788;2023-02-24T09:50:05;39.47;;;18.47;;
3337;SDS011;1682;49.286;10.788;2023-02-24T09:52:38;34.60;;;18.77;;
3337;SDS011;1682;49.286;10.788;2023-02-24T09:55:10;35.57;;;18.63;;
3337;SDS011;1682;49.286;10.788;2023-02-24T09:57:49;36.70;;;18.60;;
3337;SDS011;1682;49.286;10.788;2023-02-24T10:00:51;27.90;;;16.37;;
3337;SDS011;1682;49.286;10.788;2023-02-24T10:03:20;29.63;;;17.53;;
3337;SDS011;1682;49.286;10.788;2023-02-24T10:06:10;30.67;;;17.17;;
3337;SDS011;1682;49.286;10.788;2023-02-24T10:08:40;30.97;;;17.40;;
3337;SDS011;1682;49.286;10.788;2023-02-24T10:11:08;33.80;;;17.83;;
3337;SDS011;1682;49.286;10.788;2023-02-24T10:13:36;28.13;;;17.20;;
3337;SDS011;1682;49.286;10.788;2023-02-24T10:16:09;32.37;;;17.87;;
3337;SDS011;1682;49.286;10.788;2023-02-24T10:18:39;30.90;;;18.83;;
3337;SDS011;1682;49.286;10.788;2023-02-24T10:21:15;36.70;;;19.80;;
3337;SDS011;1682;49.286;10.788;2023-02-24T10:23:50;29.33;;;18.50;;
3337;SDS011;1682;49.286;10.788;2023-02-24T10:26:22;28.60;;;16.70;;
3337;SDS011;1682;49.286;10.788;2023-02-24T10:28:57;29.40;;;16.77;;
3337;SDS011;1682;49.286;10.788;2023-02-24T10:31:36;30.60;;;17.70;;
3337;SDS011;1682;49.286;10.788;2023-02-24T10:34:08;29.97;;;15.60;;
3337;SDS011;1682;49.286;10.788;2023-02-24T10:36:36;27.93;;;16.10;;
3337;SDS011;1682;49.286;10.788;2023-02-24T10:39:08;29.80;;;19.17;;
3337;SDS011;1682;49.286;10.788;2023-02-24T10:41:41;29.87;;;16.70;;
3337;SDS011;1682;49.286;10.788;2023-02-24T10:44:10;31.97;;;17.63;;
3337;SDS011;1682;49.286;10.788;2023-02-24T10:46:41;33.40;;;17.47;;
3337;SDS011;1682;49.286;10.788;2023-02-24T10:49:09;34.07;;;19.43;;
3337;SDS011;1682;49.286;10.788;2023-02-24T10:51:41;38.57;;;18.80;;
3337;SDS011;1682;49.286;10.788;2023-02-24T10:54:12;39.53;;;20.97;;
3337;SDS011;1682;49.286;10.788;2023-02-24T10:57:01;31.87;;;18.33;;
3337;SDS011;1682;49.286;10.788;2023-02-24T10:59:46;33.43;;;17.40;;
3337;SDS011;1682;49.286;10.788;2023-02-24T11:02:47;35.17;;;18.60;;
3337;SDS011;1682;49.286;10.788;2023-02-24T11:05:37;25.03;;;14.60;;
3337;SDS011;1682;49.286;10.788;2023-02-24T11:08:29;27.50;;;16.77;;
3337;SDS011;1682;49.286;10.788;2023-02-24T11:11:20;28.50;;;15.30;;
3337;SDS011;1682;49.286;10.788;2023-02-24T11:13:54;34.40;;;16.07;;
3337;SDS011;1682;49.286;10.788;2023-02-24T11:16:41;30.10;;;17.00;;
3337;SDS011;1682;49.286;10.788;2023-02-24T11:19:28;27.57;;;17.43;;
3337;SDS011;1682;49.286;10.788;2023-02-24T11:21:56;32.67;;;16.77;;
3337;SDS011;1682;49.286;10.788;2023-02-24T11:24:24;32.97;;;18.60;;
3337;SDS011;1682;49.286;10.788;2023-02-24T11:26:52;28.03;;;14.73;;
3337;SDS011;1682;49.286;10.788;2023-02-24T11:29:22;26.83;;;14.60;;
3337;SDS011;1682;49.286;10.788;2023-02-24T11:31:57;31.37;;;14.87;;
3337;SDS011;1682;49.286;10.788;2023-02-24T11:34:33;35.33;;;16.57;;
3337;SDS011;1682;49.286;10.788;2023-02-24T11:37:03;30.33;;;15.90;;
3337;SDS011;1682;49.286;10.788;2023-02-24T11:39:38;28.83;;;15.63;;
3337;SDS011;1682;49.286;10.788;2023-02-24T11:42:08;30.10;;;16.83;;
3337;SDS011;1682;49.286;10.788;2023-02-24T11:44:39;23.70;;;14.00;;
3337;SDS011;1682;49.286;10.788;2023-02-24T11:47:12;31.33;;;17.30;;
3337;SDS011;1682;49.286;10.788;2023-02-24T11:49:41;20.83;;;14.33;;
3337;SDS011;1682;49.286;10.788;2023-02-24T11:52:11;26.70;;;15.80;;
3337;SDS011;1682;49.286;10.788;2023-02-24T11:54:42;27.67;;;14.83;;
3337;SDS011;1682;49.286;10.788;2023-02-24T11:57:11;26.07;;;14.73;;
3337;SDS011;1682;49.286;10.788;2023-02-24T11:59:41;23.97;;;13.53;;
3337;SDS011;1682;49.286;10.788;2023-02-24T12:02:12;28.67;;;13.10;;
3337;SDS011;1682;49.286;10.788;2023-02-24T12:04:44;25.30;;;14.47;;
3337;SDS011;1682;49.286;10.788;2023-02-24T12:07:17;27.73;;;13.67;;
3337;SDS011;1682;49.286;10.788;2023-02-24T12:09:48;22.10;;;12.70;;
3337;SDS011;1682;49.286;10.788;2023-02-24T12:12:17;21.17;;;13.60;;
3337;SDS011;1682;49.286;10.788;2023-02-24T12:14:46;23.47;;;12.00;;
3337;SDS011;1682;49.286;10.788;2023-02-24T12:17:16;20.30;;;13.10;;
3337;SDS011;1682;49.286;10.788;2023-02-24T12:19:52;22.27;;;12.63;;
3337;SDS011;1682;49.286;10.788;2023-02-24T12:22:21;24.50;;;13.17;;
3337;SDS011;1682;49.286;10.788;2023-02-24T12:24:50;22.23;;;12.10;;
3337;SDS011;1682;49.286;10.788;2023-02-24T12:27:32;23.33;;;12.30;;
3337;SDS011;1682;49.286;10.788;2023-02-24T12:30:14;30.00;;;17.07;;
3337;SDS011;1682;49.286;10.788;2023-02-24T12:32:59;21.70;;;11.80;;
3337;SDS011;1682;49.286;10.788;2023-02-24T12:35:31;22.37;;;11.27;;
3337;SDS011;1682;49.286;10.788;2023-02-24T12:38:03;23.07;;;13.17;;
3337;SDS011;1682;49.286;10.788;2023-02-24T12:40:38;23.87;;;13.80;;
3337;SDS011;1682;49.286;10.788;2023-02-24T12:43:17;22.37;;;13.47;;
3337;SDS011;1682;49.286;10.788;2023-02-24T12:45:49;16.27;;;9.87;;
3337;SDS011;1682;49.286;10.788;2023-02-24T12:51:13;21.80;;;12.87;;
3337;SDS011;1682;49.286;10.788;2023-02-24T12:53:43;27.13;;;13.47;;
3337;SDS011;1682;49.286;10.788;2023-02-24T12:56:14;34.33;;;17.63;;
3337;SDS011;1682;49.286;10.788;2023-02-24T12:58:45;21.97;;;12.53;;
3337;SDS011;1682;49.286;10.788;2023-02-24T13:01:16;30.30;;;15.17;;
3337;SDS011;1682;49.286;10.788;2023-02-24T13:04:03;29.93;;;12.90;;
3337;SDS011;1682;49.286;10.788;2023-02-24T13:06:39;26.23;;;13.50;;
3337;SDS011;1682;49.286;10.788;2023-02-24T13:09:11;27.00;;;13.57;;
3337;SDS011;1682;49.286;10.788;2023-02-24T13:11:41;23.30;;;11.60;;
3337;SDS011;1682;49.286;10.788;2023-02-24T13:14:13;23.03;;;11.23;;
3337;SDS011;1682;49.286;10.788;2023-02-24T13:16:43;24.07;;;13.60;;
3337;SDS011;1682;49.286;10.788;2023-02-24T13:19:20;23.60;;;11.53;;
3337;SDS011;1682;49.286;10.788;2023-02-24T13:21:55;27.03;;;13.30;;
3337;SDS011;1682;49.286;10.788;2023-02-24T13:24:23;29.93;;;14.00;;
3337;SDS011;1682;49.286;10.788;2023-02-24T13:26:51;16.90;;;10.50;;
3337;SDS011;1682;49.286;10.788;2023-02-24T13:29:29;20.53;;;10.83;;
3337;SDS011;1682;49.286;10.788;2023-02-24T13:31:56;17.50;;;11.30;;
3337;SDS011;1682;49.286;10.788;2023-02-24T13:34:28;18.97;;;11.97;;
3337;SDS011;1682;49.286;10.788;2023-02-24T13:36:57;24.43;;;12.57;;
3337;SDS011;1682;49.286;10.788;2023-02-24T13:39:30;21.00;;;12.67;;
3337;SDS011;1682;49.286;10.788;2023-02-24T13:42:02;19.43;;;10.97;;
3337;SDS011;1682;49.286;10.788;2023-02-24T13:44:29;21.43;;;11.13;;
3337;SDS011;1682;49.286;10.788;2023-02-24T13:47:03;18.20;;;11.60;;
3337;SDS011;1682;49.286;10.788;2023-02-24T13:49:33;17.67;;;10.30;;
3337;SDS011;1682;49.286;10.788;2023-02-24T13:52:04;18.63;;;10.27;;
3337;SDS011;1682;49.286;10.788;2023-02-24T13:54:44;15.30;;;8.87;;
3337;SDS011;1682;49.286;10.788;2023-02-24T13:57:24;18.03;;;10.80;;
3337;SDS011;1682;49.286;10.788;2023-02-24T13:59:58;15.93;;;8.80;;
3337;SDS011;1682;49.286;10.788;2023-02-24T14:02:34;12.63;;;8.17;;
3337;SDS011;1682;49.286;10.788;2023-02-24T14:05:07;13.93;;;8.80;;
3337;SDS011;1682;49.286;10.788;2023-02-24T14:07:37;11.90;;;8.93;;
3337;SDS011;1682;49.286;10.788;2023-02-24T14:10:12;22.43;;;9.20;;
3337;SDS011;1682;49.286;10.788;2023-02-24T14:12:42;13.50;;;8.27;;
3337;SDS011;1682;49.286;10.788;2023-02-24T14:15:11;11.83;;;7.37;;
3337;SDS011;1682;49.286;10.788;2023-02-24T14:17:38;11.37;;;8.37;;
3337;SDS011;1682;49.286;10.788;2023-02-24T14:20:18;21.63;;;9.50;;
3337;SDS011;1682;49.286;10.788;2023-02-24T14:22:49;11.10;;;7.23;;
3337;SDS011;1682;49.286;10.788;2023-02-24T14:25:17;12.00;;;8.07;;
3337;SDS011;1682;49.286;10.788;2023-02-24T14:27:45;13.40;;;7.57;;
3337;SDS011;1682;49.286;10.788;2023-02-24T14:30:20;17.57;;;6.40;;
3337;SDS011;1682;49.286;10.788;2023-02-24T14:32:48;9.73;;;5.93;;
3337;SDS011;1682;49.286;10.788;2023-02-24T14:35:19;8.77;;;6.17;;
3337;SDS011;1682;49.286;10.788;2023-02-24T14:37:48;12.63;;;8.03;;
3337;SDS011;1682;49.286;10.788;2023-02-24T14:40:15;8.63;;;6.10;;
3337;SDS011;1682;49.286;10.788;2023-02-24T14:42:46;11.03;;;8.40;;
3337;SDS011;1682;49.286;10.788;2023-02-24T14:45:17;15.50;;;7.77;;
3337;SDS011;1682;49.286;10.788;2023-02-24T14:47:44;14.23;;;8.30;;
3337;SDS011;1682;49.286;10.788;2023-02-24T14:50:14;10.83;;;7.33;;
3337;SDS011;1682;49.286;10.788;2023-02-24T14:52:43;9.50;;;7.50;;
3337;SDS011;1682;49.286;10.788;2023-02-24T14:55:14;10.03;;;6.70;;
3337;SDS011;1682;49.286;10.788;2023-02-24T14:57:42;17.77;;;8.30;;
3337;SDS011;1682;49.286;10.788;2023-02-24T15:00:12;15.90;;;9.23;;
3337;SDS011;1682;49.286;10.788;2023-02-24T15:02:47;14.00;;;7.53;;
3337;SDS011;1682;49.286;10.788;2023-02-24T15:05:16;11.20;;;7.60;;
3337;SDS011;1682;49.286;10.788;2023-02-24T15:07:43;15.00;;;8.60;;
3337;SDS011;1682;49.286;10.788;2023-02-24T15:10:18;14.67;;;8.00;;
3337;SDS011;1682;49.286;10.788;2023-02-24T15:12:47;12.60;;;7.67;;